createdAt,value
2022-11-01T00:01:52.355Z,98657.31
2022-11-01T00:04:20.231Z,98658.06
2022-11-01T00:06:47.259Z,98664.72
2022-11-01T00:09:14.394Z,98658.94
2022-11-01T00:11:41.448Z,98657.72
2022-11-01T00:14:11.706Z,98662.00
2022-11-01T00:16:38.555Z,98659.75
2022-11-01T00:19:05.646Z,98660.72
2022-11-01T00:21:32.513Z,98656.13
2022-11-01T00:23:59.425Z,98656.75
2022-11-01T00:26:26.541Z,98654.84
2022-11-01T00:28:53.882Z,98655.19
2022-11-01T00:31:21.578Z,98652.97
2022-11-01T00:33:48.894Z,98659.19
2022-11-01T00:36:15.847Z,98654.44
2022-11-01T00:38:42.985Z,98655.38
2022-11-01T00:41:09.848Z,98647.94
2022-11-01T00:43:37.151Z,98651.53
2022-11-01T00:46:04.819Z,98655.16
2022-11-01T00:48:32.140Z,98649.31
2022-11-01T00:50:59.071Z,98651.25
2022-11-01T00:53:26.043Z,98655.56
2022-11-01T00:55:53.037Z,98649.44
2022-11-01T00:58:20.334Z,98652.50
2022-11-01T01:00:48.160Z,98649.81
2022-11-01T01:03:15.133Z,98646.50
2022-11-01T01:05:42.172Z,98643.97
2022-11-01T01:08:09.212Z,98646.16
2022-11-01T01:10:36.650Z,98651.63
2022-11-01T01:13:04.431Z,98652.53
2022-11-01T01:15:31.816Z,98653.38
2022-11-01T01:17:58.966Z,98656.19
2022-11-01T01:20:26.045Z,98651.19
2022-11-01T01:22:52.935Z,98647.38
2022-11-01T01:25:21.058Z,98646.66
2022-11-01T01:27:47.980Z,98648.28
2022-11-01T01:30:15.201Z,98652.44
2022-11-01T01:32:42.452Z,98648.03
2022-11-01T01:35:09.967Z,98652.53
2022-11-01T01:37:37.272Z,98652.31
2022-11-01T01:40:05.908Z,98647.50
2022-11-01T01:42:37.436Z,98646.28
2022-11-01T01:45:40.941Z,98646.00
2022-11-01T01:48:19.430Z,98651.16
2022-11-01T01:50:58.607Z,98651.91
2022-11-01T01:53:45.591Z,98652.97
2022-11-01T01:56:24.440Z,98652.59
2022-11-01T01:59:01.546Z,98651.94
2022-11-01T02:01:29.273Z,98651.44
2022-11-01T02:04:00.268Z,98645.81
2022-11-01T02:06:27.910Z,98651.06
2022-11-01T02:08:58.079Z,98649.72
2022-11-01T02:11:25.238Z,98655.63
2022-11-01T02:13:52.287Z,98656.69
2022-11-01T02:16:41.001Z,98658.03
2022-11-01T02:19:26.365Z,98649.81
2022-11-01T02:22:17.441Z,98650.78
2022-11-01T02:25:10.224Z,98660.38
2022-11-01T02:28:03.646Z,98658.06
2022-11-01T02:30:58.189Z,98668.13
2022-11-01T02:33:42.948Z,98660.38
2022-11-01T02:36:19.406Z,98661.94
2022-11-01T02:38:48.856Z,98667.97
2022-11-01T02:41:32.950Z,98661.38
2022-11-01T02:44:04.935Z,98667.25
2022-11-01T02:46:54.243Z,98667.25
2022-11-01T02:49:23.677Z,98659.13
2022-11-01T02:51:52.897Z,98666.88
2022-11-01T02:54:29.144Z,98663.53
2022-11-01T02:57:05.294Z,98668.53
2022-11-01T02:59:44.026Z,98671.88
2022-11-01T03:02:21.130Z,98663.41
2022-11-01T03:04:48.696Z,98667.63
2022-11-01T03:07:16.893Z,98669.78
2022-11-01T03:09:44.702Z,98676.03
2022-11-01T03:12:25.750Z,98670.06
2022-11-01T03:15:03.211Z,98676.53
2022-11-01T03:17:47.960Z,98681.66
2022-11-01T03:20:23.216Z,98679.53
2022-11-01T03:23:01.926Z,98674.50
2022-11-01T03:25:39.822Z,98669.63
2022-11-01T03:28:15.611Z,98671.75
2022-11-01T03:30:48.316Z,98677.72
2022-11-01T03:33:17.042Z,98678.69
2022-11-01T03:35:49.094Z,98672.13
2022-11-01T03:38:20.326Z,98675.69
2022-11-01T03:40:56.651Z,98673.06
2022-11-01T03:43:27.026Z,98679.03
2022-11-01T03:45:54.989Z,98672.34
2022-11-01T03:48:21.973Z,98677.59
2022-11-01T03:50:51.045Z,98669.97
2022-11-01T03:53:18.144Z,98677.78
2022-11-01T03:55:45.011Z,98673.84
2022-11-01T03:58:12.039Z,98680.66
2022-11-01T04:00:44.251Z,98680.09
2022-11-01T04:03:13.036Z,98681.69
2022-11-01T04:05:41.629Z,98683.56
2022-11-01T04:08:11.385Z,98680.59
2022-11-01T04:10:38.821Z,98675.72
2022-11-01T04:13:05.993Z,98677.88
2022-11-01T04:15:51.575Z,98681.44
2022-11-01T04:18:42.129Z,98675.00
2022-11-01T04:21:16.269Z,98674.19
2022-11-01T04:23:44.545Z,98686.94
2022-11-01T04:26:13.652Z,98681.56
2022-11-01T04:28:40.834Z,98685.50
2022-11-01T04:31:08.213Z,98681.44
2022-11-01T04:33:35.053Z,98684.66
2022-11-01T04:36:06.531Z,98689.88
2022-11-01T04:38:33.417Z,98683.19
2022-11-01T04:41:00.309Z,98682.34
2022-11-01T04:43:27.245Z,98692.03
2022-11-01T04:45:55.535Z,98690.84
2022-11-01T04:48:23.045Z,98691.91
2022-11-01T04:50:50.098Z,98691.34
2022-11-01T04:53:17.186Z,98686.91
2022-11-01T04:55:44.099Z,98688.88
2022-11-01T04:58:11.422Z,98687.84
2022-11-01T05:00:39.036Z,98695.03
2022-11-01T05:03:07.833Z,98699.44
2022-11-01T05:05:35.357Z,98700.56
2022-11-01T05:08:08.163Z,98705.44
2022-11-01T05:10:36.844Z,98709.13
2022-11-01T05:13:05.861Z,98708.94
2022-11-01T05:15:33.727Z,98704.16
2022-11-01T05:18:02.094Z,98718.81
2022-11-01T05:20:30.801Z,98719.59
2022-11-01T05:22:59.995Z,98713.47
2022-11-01T05:25:27.906Z,98720.81
2022-11-01T05:28:10.801Z,98721.75
2022-11-01T05:30:38.490Z,98730.28
2022-11-01T05:33:06.507Z,98729.97
2022-11-01T05:35:34.943Z,98725.72
2022-11-01T05:38:03.835Z,98723.81
2022-11-01T05:40:31.237Z,98730.50
2022-11-01T05:42:59.038Z,98733.44
2022-11-01T05:45:26.201Z,98729.16
2022-11-01T05:47:53.194Z,98727.41
2022-11-01T05:50:20.172Z,98741.91
2022-11-01T05:52:47.063Z,98732.66
2022-11-01T05:55:14.029Z,98744.78
2022-11-01T05:57:40.919Z,98737.59
2022-11-01T06:00:08.509Z,98735.81
2022-11-01T06:02:41.310Z,98743.34
2022-11-01T06:05:08.959Z,98738.09
2022-11-01T06:07:36.653Z,98744.38
2022-11-01T06:10:05.074Z,98752.81
2022-11-01T06:12:32.257Z,98750.28
2022-11-01T06:14:59.191Z,98760.22
2022-11-01T06:17:26.107Z,98747.34
2022-11-01T06:19:53.047Z,98760.09
2022-11-01T06:22:19.909Z,98757.53
2022-11-01T06:24:46.819Z,98768.56
2022-11-01T06:27:13.855Z,98757.91
2022-11-01T06:29:40.727Z,98767.56
2022-11-01T06:32:07.634Z,98758.31
2022-11-01T06:34:34.575Z,98757.84
2022-11-01T06:37:02.224Z,98758.28
2022-11-01T06:39:29.212Z,98758.22
2022-11-01T06:41:56.099Z,98762.88
2022-11-01T06:44:23.102Z,98765.16
2022-11-01T06:46:50.036Z,98766.25
2022-11-01T06:49:19.097Z,98765.69
2022-11-01T06:51:46.493Z,98769.16
2022-11-01T06:54:13.750Z,98768.50
2022-11-01T06:56:40.665Z,98772.34
2022-11-01T06:59:08.463Z,98769.97
2022-11-01T07:01:35.865Z,98773.16
2022-11-01T07:04:02.953Z,98774.06
2022-11-01T07:06:31.161Z,98776.94
2022-11-01T07:09:01.646Z,98779.63
2022-11-01T07:11:31.431Z,98774.50
2022-11-01T07:13:59.570Z,98771.50
2022-11-01T07:16:27.470Z,98776.94
2022-11-01T07:18:54.757Z,98782.41
2022-11-01T07:21:21.702Z,98770.94
2022-11-01T07:23:48.677Z,98769.44
2022-11-01T07:26:15.608Z,98779.34
2022-11-01T07:28:42.656Z,98776.63
2022-11-01T07:31:09.577Z,98778.59
2022-11-01T07:33:36.465Z,98772.81
2022-11-01T07:36:04.710Z,98774.28
2022-11-01T07:38:31.779Z,98769.84
2022-11-01T07:40:58.723Z,98764.72
2022-11-01T07:43:25.617Z,98768.91
2022-11-01T07:45:52.533Z,98771.22
2022-11-01T07:48:19.902Z,98768.44
2022-11-01T07:50:46.881Z,98766.56
2022-11-01T07:53:16.888Z,98759.19
2022-11-01T07:55:44.651Z,98758.56
2022-11-01T07:58:12.436Z,98762.34
2022-11-01T08:00:40.425Z,98764.63
2022-11-01T08:03:09.562Z,98764.34
2022-11-01T08:05:37.229Z,98768.75
2022-11-01T08:08:05.875Z,98759.84
2022-11-01T08:10:34.466Z,98754.50
2022-11-01T08:13:27.898Z,98758.94
2022-11-01T08:15:55.227Z,98758.63
2022-11-01T08:18:24.429Z,98755.50
2022-11-01T08:20:51.718Z,98749.69
2022-11-01T08:23:18.874Z,98754.69
2022-11-01T08:25:46.060Z,98745.88
2022-11-01T08:28:18.245Z,98747.03
2022-11-01T08:30:48.169Z,98755.97
2022-11-01T08:33:15.315Z,98756.91
2022-11-01T08:35:49.722Z,98746.03
2022-11-01T08:38:17.605Z,98751.84
2022-11-01T08:40:44.460Z,98750.63
2022-11-01T08:43:11.336Z,98754.31
2022-11-01T08:45:38.383Z,98750.44
2022-11-01T08:48:05.895Z,98749.25
2022-11-01T08:50:35.043Z,98747.91
2022-11-01T08:53:07.841Z,98751.38
2022-11-01T08:55:37.893Z,98749.03
2022-11-01T08:58:06.529Z,98746.16
2022-11-01T09:00:34.109Z,98743.88
2022-11-01T09:03:01.260Z,98745.69
2022-11-01T09:05:31.330Z,98751.56
2022-11-01T09:08:00.213Z,98739.09
2022-11-01T09:10:28.608Z,98744.56
2022-11-01T09:12:55.513Z,98739.28
2022-11-01T09:15:22.412Z,98741.56
2022-11-01T09:17:49.329Z,98742.16
2022-11-01T09:20:16.485Z,98739.22
2022-11-01T09:22:43.396Z,98730.78
2022-11-01T09:25:11.236Z,98741.38
2022-11-01T09:27:38.259Z,98728.53
2022-11-01T09:30:06.067Z,98728.59
2022-11-01T09:32:33.009Z,98727.59
2022-11-01T09:35:00.801Z,98728.97
2022-11-01T09:37:27.904Z,98731.63
2022-11-01T09:39:54.881Z,98719.78
2022-11-01T09:42:32.679Z,98722.81
2022-11-01T10:17:53.197Z,98715.50
2022-11-01T10:20:27.873Z,98706.38
2022-11-01T10:22:55.402Z,98712.53
2022-11-01T10:25:23.691Z,98715.91
2022-11-01T10:28:02.138Z,98712.66
2022-11-01T10:30:36.779Z,98710.78
2022-11-01T10:33:15.017Z,98708.69
2022-11-01T10:35:44.854Z,98705.78
2022-11-01T10:41:34.197Z,98689.44
2022-11-01T10:44:05.147Z,98695.03
2022-11-01T10:46:38.555Z,98691.75
2022-11-01T10:49:14.899Z,98688.53
2022-11-01T10:51:42.509Z,98682.09
2022-11-01T10:54:19.051Z,98679.69
2022-11-01T10:56:49.417Z,98672.97
2022-11-01T10:59:29.441Z,98671.75
2022-11-01T11:01:57.384Z,98670.34
2022-11-01T11:04:25.139Z,98674.56
2022-11-01T11:06:52.797Z,98665.78
2022-11-01T11:09:34.508Z,98659.38
2022-11-01T11:12:09.974Z,98666.41
2022-11-01T11:14:37.819Z,98663.75
2022-11-01T11:17:18.055Z,98654.91
2022-11-01T11:19:47.820Z,98654.78
2022-11-01T11:22:15.137Z,98648.41
2022-11-01T11:24:44.747Z,98655.03
2022-11-01T11:27:26.032Z,98651.81
2022-11-01T11:29:56.869Z,98642.47
2022-11-01T11:32:28.021Z,98644.00
2022-11-01T11:35:17.515Z,98644.88
2022-11-01T11:38:07.225Z,98645.81
2022-11-01T11:40:43.239Z,98647.75
2022-11-01T11:43:19.163Z,98648.63
2022-11-01T11:46:24.054Z,98642.41
2022-11-01T11:49:04.594Z,98649.09
2022-11-01T11:51:37.770Z,98634.59
2022-11-01T11:54:32.272Z,98639.06
2022-11-01T11:57:25.020Z,98636.88
2022-11-01T11:59:57.464Z,98639.00
2022-11-01T12:02:28.289Z,98632.69
2022-11-01T12:05:09.496Z,98636.84
2022-11-01T12:07:46.483Z,98631.56
2022-11-01T12:10:37.771Z,98635.44
2022-11-01T12:13:25.003Z,98631.94
2022-11-01T12:16:10.438Z,98627.13
2022-11-01T12:18:50.245Z,98631.09
2022-11-01T12:21:20.430Z,98632.28
2022-11-01T12:23:52.172Z,98642.91
2022-11-01T12:26:22.801Z,98634.44
2022-11-01T12:29:04.938Z,98630.69
2022-11-01T12:31:32.233Z,98636.84
2022-11-01T12:34:10.765Z,98640.22
2022-11-01T12:36:59.091Z,98644.00
2022-11-01T12:40:02.513Z,98643.97
2022-11-01T12:42:48.354Z,98640.63
2022-11-01T12:45:28.125Z,98636.97
2022-11-01T12:48:01.627Z,98633.44
2022-11-01T12:50:47.157Z,98639.78
2022-11-01T12:53:20.529Z,98638.78
2022-11-01T12:55:47.532Z,98641.84
2022-11-01T12:58:18.574Z,98640.75
2022-11-01T13:01:09.920Z,98637.63
2022-11-01T13:03:58.334Z,98633.47
2022-11-01T13:06:56.257Z,98633.00
2022-11-01T13:09:41.756Z,98632.53
2022-11-01T13:12:29.785Z,98626.28
2022-11-01T13:15:03.738Z,98634.41
2022-11-01T13:17:42.793Z,98632.75
2022-11-01T13:20:38.020Z,98631.75
2022-11-01T13:23:22.858Z,98634.91
2022-11-01T13:26:02.226Z,98635.13
2022-11-01T13:28:31.678Z,98627.53
2022-11-01T13:31:03.698Z,98632.97
2022-11-01T13:33:38.709Z,98624.16
2022-11-01T13:36:13.489Z,98630.19
2022-11-01T13:38:40.501Z,98625.00
2022-11-01T13:41:22.241Z,98625.69
2022-11-01T13:43:54.713Z,98622.53
2022-11-01T13:46:40.316Z,98621.59
2022-11-01T13:49:10.008Z,98616.63
2022-11-01T13:51:40.835Z,98620.44
2022-11-01T13:54:38.856Z,98614.97
2022-11-01T13:57:11.110Z,98615.84
2022-11-01T13:59:38.167Z,98622.28
2022-11-01T14:02:23.649Z,98627.94
2022-11-01T14:05:02.648Z,98621.94
2022-11-01T14:07:37.863Z,98617.81
2022-11-01T14:10:33.420Z,98611.00
2022-11-01T14:13:15.898Z,98613.81
2022-11-01T14:15:54.518Z,98616.13
2022-11-01T14:18:21.972Z,98615.47
2022-11-01T14:20:56.780Z,98614.63
2022-11-01T14:23:29.350Z,98615.00
2022-11-01T14:26:21.539Z,98617.22
2022-11-01T14:28:50.695Z,98608.75
2022-11-01T14:31:22.252Z,98607.59
2022-11-01T14:33:49.685Z,98612.19
2022-11-01T14:36:21.106Z,98611.19
2022-11-01T14:39:00.438Z,98609.72
2022-11-01T14:41:32.704Z,98610.53
2022-11-01T14:44:06.023Z,98618.47
2022-11-01T14:46:39.052Z,98609.84
2022-11-01T14:49:40.152Z,98601.72
2022-11-01T14:52:11.108Z,98599.69
2022-11-01T14:54:53.621Z,98601.16
2022-11-01T14:57:28.230Z,98602.75
2022-11-01T14:59:56.747Z,98604.06
2022-11-01T15:02:25.973Z,98598.44
2022-11-01T15:04:59.229Z,98601.56
2022-11-01T15:07:32.044Z,98602.97
2022-11-01T15:10:11.434Z,98598.66
2022-11-01T15:13:00.488Z,98594.09
2022-11-01T15:15:38.155Z,98598.84
2022-11-01T15:18:13.622Z,98583.63
2022-11-01T15:20:43.894Z,98603.06
2022-11-01T15:23:15.699Z,98592.13
2022-11-01T15:25:44.510Z,98597.50
2022-11-01T15:28:23.878Z,98597.13
2022-11-01T15:30:57.810Z,98597.50
2022-11-01T15:33:32.670Z,98599.25
2022-11-01T15:36:08.304Z,98602.22
2022-11-01T15:38:51.990Z,98606.13
2022-11-01T15:41:26.464Z,98603.06
2022-11-01T15:43:58.401Z,98607.19
2022-11-01T15:46:30.395Z,98606.69
2022-11-01T15:49:01.478Z,98613.78
2022-11-01T15:51:30.051Z,98611.22
2022-11-01T15:54:02.447Z,98613.19
2022-11-01T15:56:41.147Z,98610.16
2022-11-01T15:59:19.470Z,98611.81
2022-11-01T16:01:48.418Z,98605.69
2022-11-01T16:04:19.865Z,98616.56
2022-11-01T16:06:52.033Z,98611.44
2022-11-01T16:09:33.781Z,98617.31
2022-11-01T16:12:03.708Z,98614.13
2022-11-01T16:14:38.287Z,98615.53
2022-11-01T16:17:07.791Z,98621.91
2022-11-01T16:19:51.424Z,98622.38
2022-11-01T16:22:33.592Z,98621.41
2022-11-01T16:25:22.631Z,98623.38
2022-11-01T16:27:56.155Z,98623.38
2022-11-01T16:30:47.263Z,98625.84
2022-11-01T16:33:20.149Z,98618.81
2022-11-01T16:35:54.715Z,98626.13
2022-11-01T16:38:36.771Z,98636.78
2022-11-01T16:41:29.980Z,98628.28
2022-11-01T16:43:59.620Z,98632.41
2022-11-01T16:46:29.349Z,98632.94
2022-11-01T16:49:01.342Z,98630.91
2022-11-01T16:51:30.389Z,98628.50
2022-11-01T16:54:00.533Z,98639.41
2022-11-01T16:56:38.326Z,98634.22
2022-11-01T16:59:33.016Z,98630.91
2022-11-01T17:02:03.907Z,98637.75
2022-11-01T17:04:31.378Z,98634.50
2022-11-01T17:06:58.341Z,98633.19
2022-11-01T17:09:35.809Z,98628.47
2022-11-01T17:12:03.135Z,98625.28
2022-11-01T17:14:30.020Z,98627.63
2022-11-01T17:16:57.220Z,98619.56
2022-11-01T17:19:31.351Z,98620.41
2022-11-01T17:22:01.650Z,98620.25
2022-11-01T17:24:30.161Z,98628.47
2022-11-01T17:27:00.763Z,98620.72
2022-11-01T17:29:29.547Z,98620.31
2022-11-01T17:31:56.509Z,98609.06
2022-11-01T17:34:24.551Z,98607.25
2022-11-01T17:36:51.593Z,98605.31
2022-11-01T17:39:19.967Z,98611.69
2022-11-01T17:41:47.024Z,98609.31
2022-11-01T17:44:13.966Z,98610.66
2022-11-01T17:46:41.034Z,98611.50
2022-11-01T17:49:11.470Z,98608.72
2022-11-01T17:51:38.305Z,98613.22
2022-11-01T17:54:05.360Z,98613.81
2022-11-01T17:56:32.303Z,98616.53
2022-11-01T17:58:59.368Z,98608.72
2022-11-01T18:01:26.447Z,98609.59
2022-11-01T18:03:53.546Z,98604.47
2022-11-01T18:06:20.943Z,98598.22
2022-11-01T18:08:50.372Z,98607.50
2022-11-01T18:11:38.923Z,98605.38
2022-11-01T18:14:32.814Z,98598.84
2022-11-01T18:17:31.909Z,98601.09
2022-11-01T18:20:19.652Z,98599.78
2022-11-01T18:23:03.421Z,98605.78
2022-11-01T18:25:32.890Z,98599.28
2022-11-01T18:28:02.342Z,98597.78
2022-11-01T18:30:30.119Z,98603.72
2022-11-01T18:33:05.268Z,98597.75
2022-11-01T18:35:41.640Z,98599.16
2022-11-01T18:38:26.235Z,98596.41
2022-11-01T18:40:57.490Z,98600.19
2022-11-01T18:43:27.327Z,98602.16
2022-11-01T18:46:23.376Z,98596.81
2022-11-01T18:48:42.829Z,98580.88
2022-11-01T18:51:19.653Z,98592.78
2022-11-01T18:53:47.381Z,98582.44
2022-11-01T18:56:23.004Z,98583.69
2022-11-01T18:58:55.481Z,98587.50
2022-11-01T19:01:32.103Z,98591.22
2022-11-01T19:04:11.696Z,98583.28
2022-11-01T19:06:38.770Z,98581.25
2022-11-01T19:09:27.989Z,98593.75
2022-11-01T19:12:10.989Z,98586.53
2022-11-01T19:14:39.298Z,98587.81
2022-11-01T19:17:17.669Z,98585.47
2022-11-01T19:19:44.724Z,98583.69
2022-11-01T19:22:28.792Z,98583.69
2022-11-01T19:24:55.641Z,98577.47
2022-11-01T19:27:23.350Z,98583.75
2022-11-01T19:29:56.835Z,98586.34
2022-11-01T19:32:26.017Z,98585.81
2022-11-01T19:34:55.064Z,98591.53
2022-11-01T19:37:31.803Z,98580.78
2022-11-01T19:40:01.743Z,98590.84
2022-11-01T19:42:31.647Z,98587.28
2022-11-01T19:45:20.004Z,98589.66
2022-11-01T19:47:50.528Z,98585.94
2022-11-01T19:50:23.617Z,98580.38
2022-11-01T19:52:52.238Z,98587.97
2022-11-01T19:55:34.612Z,98587.81
2022-11-01T19:58:02.893Z,98587.44
2022-11-01T20:00:29.945Z,98581.47
2022-11-01T20:02:59.057Z,98586.47
2022-11-01T20:05:30.728Z,98588.34
2022-11-01T20:08:22.300Z,98591.34
2022-11-01T20:10:49.351Z,98591.34
2022-11-01T20:13:16.380Z,98588.34
2022-11-01T20:15:43.315Z,98583.56
2022-11-01T20:18:11.101Z,98580.19
2022-11-01T20:20:43.903Z,98580.50
2022-11-01T20:23:25.804Z,98571.72
2022-11-01T20:25:53.609Z,98579.34
2022-11-01T20:28:20.480Z,98578.53
2022-11-01T20:30:47.372Z,98578.31
2022-11-01T20:33:14.281Z,98575.56
2022-11-01T20:35:41.154Z,98577.34
2022-11-01T20:38:08.215Z,98574.84
2022-11-01T20:40:35.144Z,98574.34
2022-11-01T20:43:02.570Z,98577.94
2022-11-01T20:45:29.840Z,98574.13
2022-11-01T20:47:57.356Z,98574.63
2022-11-01T20:50:24.276Z,98571.97
2022-11-01T20:52:51.186Z,98565.38
2022-11-01T20:55:18.546Z,98567.38
2022-11-01T20:57:45.537Z,98566.00
2022-11-01T21:00:13.976Z,98564.06
2022-11-01T21:02:41.190Z,98560.81
2022-11-01T21:05:27.311Z,98560.69
2022-11-01T21:08:24.653Z,98551.56
2022-11-01T21:10:58.791Z,98557.50
2022-11-01T21:13:30.053Z,98553.22
2022-11-01T21:15:58.971Z,98561.59
2022-11-01T21:18:32.885Z,98552.00
2022-11-01T21:21:19.903Z,98554.50
2022-11-01T21:23:47.965Z,98554.78
2022-11-01T21:26:24.664Z,98554.56
2022-11-01T21:28:55.607Z,98553.56
2022-11-01T21:31:31.222Z,98543.25
2022-11-01T21:34:16.184Z,98540.63
2022-11-01T21:36:50.809Z,98540.69
2022-11-01T21:39:25.508Z,98540.56
2022-11-01T21:41:55.871Z,98538.31
2022-11-01T21:44:49.410Z,98536.03
2022-11-01T21:47:16.485Z,98536.03
2022-11-01T21:49:43.716Z,98535.34
2022-11-01T21:54:43.444Z,98532.84
2022-11-01T21:57:11.910Z,98533.09
2022-11-01T21:59:39.020Z,98533.25
2022-11-01T22:02:07.747Z,98534.47
2022-11-01T22:04:34.670Z,98537.19
2022-11-01T22:07:03.835Z,98536.91
2022-11-01T22:09:32.196Z,98534.16
2022-11-01T22:11:59.390Z,98525.50
2022-11-01T22:14:26.378Z,98525.34
2022-11-01T22:16:53.349Z,98524.91
2022-11-01T22:19:21.093Z,98519.91
2022-11-01T22:21:47.992Z,98517.09
2022-11-01T22:24:14.892Z,98519.50
2022-11-01T22:26:41.812Z,98517.59
2022-11-01T22:29:08.713Z,98519.66
2022-11-01T22:31:35.715Z,98518.59
2022-11-01T22:34:02.911Z,98511.75
2022-11-01T22:36:31.596Z,98512.50
2022-11-01T22:39:00.434Z,98511.81
2022-11-01T22:41:31.930Z,98512.13
2022-11-01T22:44:06.186Z,98500.63
2022-11-01T22:46:44.411Z,98501.59
2022-11-01T22:49:31.022Z,98493.69
2022-11-01T22:52:02.149Z,98490.84
2022-11-01T22:54:38.691Z,98495.47
2022-11-01T22:57:08.337Z,98487.56
2022-11-01T22:59:39.900Z,98488.13
2022-11-01T23:02:29.262Z,98485.50
2022-11-01T23:05:24.232Z,98478.84
2022-11-01T23:07:54.037Z,98478.31
2022-11-01T23:10:28.479Z,98476.31
2022-11-01T23:13:17.872Z,98479.84
2022-11-01T23:15:45.447Z,98475.53
2022-11-01T23:18:23.969Z,98472.22
2022-11-01T23:20:59.227Z,98473.34
2022-11-01T23:23:26.725Z,98472.75
2022-11-01T23:25:55.674Z,98477.47
2022-11-01T23:28:24.265Z,98475.81
2022-11-01T23:30:51.826Z,98476.38
2022-11-01T23:33:21.074Z,98480.94
2022-11-01T23:35:56.348Z,98479.69
2022-11-01T23:38:38.503Z,98472.88
2022-11-01T23:41:05.768Z,98466.94
2022-11-01T23:43:41.722Z,98467.88
2022-11-01T23:46:12.445Z,98468.16
2022-11-01T23:48:43.223Z,98468.00
2022-11-01T23:51:16.992Z,98460.56
2022-11-01T23:53:45.256Z,98462.50
2022-11-01T23:56:14.607Z,98462.59
2022-11-01T23:58:41.474Z,98464.25
